createdAt,value
2018-06-27T00:00:46.952Z,0.00
2018-06-27T00:02:07.991Z,0.00
2018-06-27T00:02:46.999Z,0.00
2018-06-27T00:03:47.020Z,0.00
2018-06-27T00:04:47.040Z,0.00
2018-06-27T00:05:47.064Z,0.00
2018-06-27T00:06:47.094Z,0.00
2018-06-27T00:08:08.135Z,0.00
2018-06-27T00:08:47.138Z,0.00
2018-06-27T00:09:47.167Z,0.00
2018-06-27T00:10:47.181Z,0.00
2018-06-27T00:11:47.205Z,0.00
2018-06-27T00:12:47.239Z,0.00
2018-06-27T00:14:08.270Z,0.00
2018-06-27T00:14:47.283Z,0.00
2018-06-27T00:15:47.308Z,0.00
2018-06-27T00:16:47.321Z,0.00
2018-06-27T00:17:47.346Z,0.00
2018-06-27T00:18:47.374Z,0.00
2018-06-27T00:20:08.413Z,0.00
2018-06-27T00:20:47.421Z,0.00
2018-06-27T00:21:47.447Z,0.00
2018-06-27T00:22:47.465Z,0.00
2018-06-27T00:23:47.490Z,0.00
2018-06-27T00:24:47.515Z,0.00
2018-06-27T00:26:08.557Z,0.00
2018-06-27T00:26:47.560Z,0.00
2018-06-27T00:27:47.582Z,0.00
2018-06-27T00:28:47.605Z,0.00
2018-06-27T00:29:47.627Z,0.00
2018-06-27T00:30:47.655Z,0.00
2018-06-27T00:32:08.693Z,0.00
2018-06-27T00:32:47.699Z,0.00
2018-06-27T00:33:47.744Z,0.00
2018-06-27T00:34:47.752Z,0.00
2018-06-27T00:35:47.776Z,0.00
2018-06-27T00:36:47.801Z,0.00
2018-06-27T00:38:08.838Z,0.00
2018-06-27T00:38:47.838Z,0.00
2018-06-27T00:39:47.867Z,0.00
2018-06-27T00:40:47.890Z,0.00
2018-06-27T00:41:47.914Z,0.00
2018-06-27T00:42:47.933Z,0.00
2018-06-27T00:44:08.970Z,0.00
2018-06-27T00:44:47.985Z,0.00
2018-06-27T00:45:48.005Z,0.00
2018-06-27T00:46:48.028Z,0.00
2018-06-27T00:47:48.052Z,0.00
2018-06-27T00:48:48.073Z,0.00
2018-06-27T00:50:09.118Z,0.00
2018-06-27T00:50:48.132Z,0.00
2018-06-27T00:51:48.152Z,0.00
2018-06-27T00:52:48.167Z,0.00
2018-06-27T00:53:48.198Z,0.00
2018-06-27T00:54:48.216Z,0.00
2018-06-27T00:56:09.266Z,0.00
2018-06-27T00:56:48.265Z,0.00
2018-06-27T00:57:48.288Z,0.00
2018-06-27T00:58:48.310Z,0.00
2018-06-27T00:59:48.332Z,0.00
2018-06-27T01:00:48.357Z,0.00
2018-06-27T01:02:09.399Z,0.00
2018-06-27T01:02:48.405Z,0.00
2018-06-27T01:03:48.426Z,0.00
2018-06-27T01:04:48.447Z,0.00
2018-06-27T01:05:48.477Z,0.00
2018-06-27T01:06:48.502Z,0.00
2018-06-27T01:08:09.541Z,0.00
2018-06-27T01:08:48.545Z,0.00
2018-06-27T01:09:48.565Z,0.00
2018-06-27T01:10:48.589Z,0.00
2018-06-27T01:11:48.618Z,0.00
2018-06-27T01:12:48.637Z,0.00
2018-06-27T01:14:09.679Z,0.00
2018-06-27T01:14:48.685Z,0.00
2018-06-27T01:15:48.705Z,0.00
2018-06-27T01:16:48.731Z,0.00
2018-06-27T01:17:48.757Z,0.00
2018-06-27T01:18:48.782Z,0.00
2018-06-27T01:20:09.860Z,0.00
2018-06-27T01:20:48.825Z,0.00
2018-06-27T01:21:48.853Z,0.00
2018-06-27T01:22:48.878Z,0.00
2018-06-27T01:23:48.895Z,0.00
2018-06-27T01:24:48.920Z,0.00
2018-06-27T01:26:09.957Z,0.00
2018-06-27T01:26:48.975Z,0.00
2018-06-27T01:27:48.990Z,0.00
2018-06-27T01:28:49.014Z,0.00
2018-06-27T01:29:49.032Z,0.00
2018-06-27T01:30:49.058Z,0.00
2018-06-27T01:32:10.098Z,0.00
2018-06-27T01:32:49.116Z,0.00
2018-06-27T01:33:49.133Z,0.00
2018-06-27T01:34:49.156Z,0.00
2018-06-27T01:35:49.178Z,0.00
2018-06-27T01:36:49.199Z,0.00
2018-06-27T01:38:10.242Z,0.00
2018-06-27T01:38:49.248Z,0.00
2018-06-27T01:39:49.272Z,0.00
2018-06-27T01:40:49.295Z,0.00
2018-06-27T01:41:49.316Z,0.00
2018-06-27T01:42:49.340Z,0.00
2018-06-27T01:44:10.388Z,0.00
2018-06-27T01:44:49.388Z,0.00
2018-06-27T01:45:49.409Z,0.00
2018-06-27T01:46:49.434Z,0.00
2018-06-27T01:47:49.454Z,0.00
2018-06-27T01:48:49.479Z,0.00
2018-06-27T01:50:10.522Z,0.00
2018-06-27T01:50:49.529Z,0.00
2018-06-27T01:51:49.554Z,0.00
2018-06-27T01:52:49.573Z,0.00
2018-06-27T01:53:49.601Z,0.00
2018-06-27T01:54:49.626Z,0.00
2018-06-27T01:56:10.669Z,0.00
2018-06-27T01:56:49.668Z,0.00
2018-06-27T01:57:49.688Z,0.00
2018-06-27T01:58:49.711Z,0.00
2018-06-27T01:59:49.737Z,0.00
2018-06-27T02:00:49.765Z,0.00
2018-06-27T02:02:10.799Z,0.00
2018-06-27T02:02:49.805Z,0.00
2018-06-27T02:03:49.829Z,0.00
2018-06-27T02:04:49.854Z,0.00
2018-06-27T02:05:49.879Z,0.00
2018-06-27T02:06:49.906Z,0.00
2018-06-27T02:08:10.937Z,0.00
2018-06-27T02:08:49.943Z,0.00
2018-06-27T02:09:49.971Z,0.00
2018-06-27T02:10:49.995Z,0.00
2018-06-27T02:11:50.018Z,0.00
2018-06-27T02:12:50.045Z,0.00
2018-06-27T02:14:11.080Z,4.00
2018-06-27T02:14:50.087Z,4.00
2018-06-27T02:15:50.112Z,4.00
2018-06-27T02:16:50.136Z,0.00
2018-06-27T02:17:50.157Z,0.00
2018-06-27T02:18:50.181Z,4.00
2018-06-27T02:20:11.218Z,4.00
2018-06-27T02:20:50.226Z,4.00
2018-06-27T02:21:50.254Z,0.00
2018-06-27T02:22:50.277Z,4.00
2018-06-27T02:23:50.299Z,4.00
2018-06-27T02:24:50.315Z,8.00
2018-06-27T02:26:11.360Z,4.00
2018-06-27T02:26:50.380Z,4.00
2018-06-27T02:27:50.392Z,8.00
2018-06-27T02:28:50.417Z,8.00
2018-06-27T02:29:50.435Z,8.00
2018-06-27T02:30:50.463Z,8.00
2018-06-27T02:32:11.505Z,12.00
2018-06-27T02:32:50.509Z,12.00
2018-06-27T02:33:50.529Z,12.00
2018-06-27T02:34:50.551Z,12.00
2018-06-27T02:35:50.573Z,12.00
2018-06-27T02:36:50.596Z,12.00
2018-06-27T02:38:11.641Z,16.00
2018-06-27T02:38:50.657Z,20.00
2018-06-27T02:39:50.673Z,20.00
2018-06-27T02:40:50.690Z,20.00
2018-06-27T02:41:50.720Z,24.00
2018-06-27T02:42:50.743Z,24.00
2018-06-27T02:44:11.779Z,28.00
2018-06-27T02:44:50.791Z,32.00
2018-06-27T02:45:50.808Z,32.00
2018-06-27T02:46:50.831Z,36.00
2018-06-27T02:47:50.857Z,40.00
2018-06-27T02:48:50.884Z,44.00
2018-06-27T02:50:11.918Z,48.00
2018-06-27T02:50:50.925Z,48.00
2018-06-27T02:51:50.951Z,56.00
2018-06-27T02:52:50.974Z,56.00
2018-06-27T02:53:50.997Z,60.00
2018-06-27T02:54:51.024Z,64.00
2018-06-27T02:56:12.056Z,68.00
2018-06-27T02:56:51.063Z,76.00
2018-06-27T02:57:51.096Z,80.00
2018-06-27T02:58:51.118Z,84.00
2018-06-27T02:59:51.138Z,88.00
2018-06-27T03:00:51.162Z,92.00
2018-06-27T03:02:12.200Z,100.00
2018-06-27T03:02:51.206Z,108.00
2018-06-27T03:03:51.232Z,108.00
2018-06-27T03:04:51.296Z,116.00
2018-06-27T03:05:51.275Z,124.00
2018-06-27T03:06:51.299Z,132.00
2018-06-27T03:08:12.336Z,140.00
2018-06-27T03:08:51.344Z,144.00
2018-06-27T03:09:51.373Z,152.00
2018-06-27T03:10:51.399Z,168.00
2018-06-27T03:11:51.419Z,176.00
2018-06-27T03:12:51.438Z,188.00
2018-06-27T03:14:12.485Z,200.00
2018-06-27T03:14:51.492Z,208.00
2018-06-27T03:15:51.512Z,224.00
2018-06-27T03:16:51.534Z,240.00
2018-06-27T03:17:51.554Z,252.00
2018-06-27T03:18:51.577Z,268.00
2018-06-27T03:20:12.624Z,288.00
2018-06-27T03:20:51.630Z,304.00
2018-06-27T03:21:51.649Z,324.00
2018-06-27T03:22:51.674Z,352.00
2018-06-27T03:23:51.696Z,372.00
2018-06-27T03:24:51.720Z,400.00
2018-06-27T03:26:12.762Z,424.00
2018-06-27T03:26:51.769Z,452.00
2018-06-27T03:27:51.796Z,484.00
2018-06-27T03:28:51.812Z,520.00
2018-06-27T03:29:51.840Z,564.00
2018-06-27T03:30:51.870Z,608.00
2018-06-27T03:32:12.900Z,660.00
2018-06-27T03:32:51.908Z,700.00
2018-06-27T03:33:51.985Z,748.00
2018-06-27T03:34:51.951Z,800.00
2018-06-27T03:35:51.978Z,840.00
2018-06-27T03:36:52.003Z,884.00
2018-06-27T03:38:13.033Z,928.00
2018-06-27T03:38:52.047Z,976.00
2018-06-27T03:39:52.069Z,1008.00
2018-06-27T03:40:52.093Z,1056.00
2018-06-27T03:41:52.122Z,1080.00
2018-06-27T03:42:52.145Z,1116.00
2018-06-27T03:44:13.179Z,1112.00
2018-06-27T03:44:52.187Z,1124.00
2018-06-27T03:45:52.215Z,1200.00
2018-06-27T03:46:52.244Z,1256.00
2018-06-27T03:47:52.263Z,1352.00
2018-06-27T03:48:52.287Z,1380.00
2018-06-27T03:50:13.321Z,1428.00
2018-06-27T03:50:52.330Z,1360.00
2018-06-27T03:51:52.359Z,1256.00
2018-06-27T03:52:52.390Z,1132.00
2018-06-27T03:53:52.399Z,1384.00
2018-06-27T03:54:52.425Z,1404.00
2018-06-27T03:56:13.461Z,1520.00
2018-06-27T03:56:52.473Z,1656.00
2018-06-27T03:57:52.498Z,1564.00
2018-06-27T03:58:52.578Z,1388.00
2018-06-27T03:59:52.543Z,1572.00
2018-06-27T04:00:52.567Z,1656.00
2018-06-27T04:02:13.611Z,1616.00
2018-06-27T04:02:52.619Z,1444.00
2018-06-27T04:03:52.640Z,1344.00
2018-06-27T04:04:52.663Z,1400.00
2018-06-27T04:05:52.685Z,1396.00
2018-06-27T04:06:52.709Z,1292.00
2018-06-27T04:08:13.751Z,1176.00
2018-06-27T04:08:52.762Z,968.00
2018-06-27T04:09:52.778Z,1012.00
2018-06-27T04:10:52.802Z,1172.00
2018-06-27T04:11:52.830Z,1268.00
2018-06-27T04:12:52.945Z,1200.00
2018-06-27T04:14:13.896Z,1076.00
2018-06-27T04:14:52.904Z,1296.00
2018-06-27T04:15:52.931Z,1240.00
2018-06-27T04:16:52.945Z,1328.00
2018-06-27T04:17:52.972Z,1332.00
2018-06-27T04:18:52.998Z,1392.00
2018-06-27T04:20:14.096Z,1396.00
2018-06-27T04:20:53.046Z,1524.00
2018-06-27T04:21:53.066Z,1520.00
2018-06-27T04:22:53.091Z,1648.00
2018-06-27T04:23:53.114Z,1648.00
2018-06-27T04:24:53.140Z,1848.00
2018-06-27T04:26:14.181Z,1592.00
2018-06-27T04:26:53.188Z,1788.00
2018-06-27T04:27:53.213Z,1540.00
2018-06-27T04:28:53.234Z,1728.00
2018-06-27T04:29:53.254Z,1848.00
2018-06-27T04:30:53.278Z,1768.00
2018-06-27T04:32:14.324Z,1820.00
2018-06-27T04:32:53.331Z,1860.00
2018-06-27T04:33:53.351Z,1992.00
2018-06-27T04:34:53.375Z,1852.00
2018-06-27T04:35:53.468Z,1984.00
2018-06-27T04:36:53.424Z,2320.00
2018-06-27T04:38:14.466Z,2356.00
2018-06-27T04:38:53.498Z,2516.00
2018-06-27T04:39:53.524Z,2604.00
2018-06-27T04:40:53.513Z,2584.00
2018-06-27T04:41:53.544Z,2580.00
2018-06-27T04:42:53.566Z,3044.00
2018-06-27T04:44:14.613Z,2860.00
2018-06-27T04:44:53.616Z,3044.00
2018-06-27T04:45:53.642Z,2840.00
2018-06-27T04:46:53.663Z,3100.00
2018-06-27T04:47:53.688Z,3032.00
2018-06-27T04:48:53.760Z,2988.00
2018-06-27T04:50:14.748Z,2960.00
2018-06-27T04:50:53.756Z,2804.00
2018-06-27T04:51:53.781Z,2908.00
2018-06-27T04:52:53.804Z,2628.00
2018-06-27T04:53:53.833Z,2688.00
2018-06-27T04:54:53.902Z,2844.00
2018-06-27T04:56:14.893Z,2876.00
2018-06-27T04:56:53.900Z,2544.00
2018-06-27T04:57:53.930Z,2356.00
2018-06-27T04:58:53.953Z,2236.00
2018-06-27T04:59:53.974Z,2908.00
2018-06-27T05:00:54.000Z,3292.00
2018-06-27T05:02:15.036Z,2704.00
2018-06-27T05:02:54.042Z,3228.00
2018-06-27T05:03:54.070Z,2676.00
2018-06-27T05:04:54.094Z,2936.00
2018-06-27T05:05:54.116Z,2932.00
2018-06-27T05:06:54.140Z,3012.00
2018-06-27T05:08:15.179Z,3480.00
2018-06-27T05:08:54.186Z,2840.00
2018-06-27T05:09:54.213Z,2436.00
2018-06-27T05:10:54.243Z,2512.00
2018-06-27T05:11:54.258Z,2376.00
2018-06-27T05:12:54.283Z,3168.00
2018-06-27T05:14:15.330Z,2684.00
2018-06-27T05:14:54.337Z,2308.00
2018-06-27T05:15:54.366Z,2184.00
2018-06-27T05:16:54.386Z,2224.00
2018-06-27T05:17:54.403Z,2476.00
2018-06-27T05:18:54.430Z,2268.00
2018-06-27T05:20:15.473Z,2660.00
2018-06-27T05:20:54.480Z,2264.00
2018-06-27T05:21:54.531Z,2040.00
2018-06-27T05:22:54.529Z,2116.00
2018-06-27T05:23:54.550Z,1624.00
2018-06-27T05:24:54.575Z,1752.00
2018-06-27T05:26:15.620Z,1788.00
2018-06-27T05:26:54.628Z,1660.00
2018-06-27T05:27:54.645Z,1496.00
2018-06-27T05:28:54.678Z,1608.00
2018-06-27T05:29:54.697Z,1848.00
2018-06-27T05:30:54.727Z,2088.00
2018-06-27T05:32:15.765Z,1864.00
2018-06-27T05:32:54.772Z,2304.00
2018-06-27T05:33:54.824Z,2544.00
2018-06-27T05:34:54.821Z,2284.00
2018-06-27T05:35:54.843Z,2612.00
2018-06-27T05:36:54.870Z,3348.00
2018-06-27T05:38:15.905Z,3636.00
2018-06-27T05:38:54.916Z,4008.00
2018-06-27T05:39:54.938Z,3452.00
2018-06-27T05:40:54.968Z,3368.00
2018-06-27T05:41:54.989Z,3116.00
2018-06-27T05:42:55.015Z,2976.00
2018-06-27T05:44:16.067Z,3544.00
2018-06-27T05:44:55.060Z,3436.00
2018-06-27T05:45:55.088Z,3516.00
2018-06-27T05:46:55.119Z,3008.00
2018-06-27T05:47:55.132Z,2572.00
2018-06-27T05:48:55.158Z,2348.00
2018-06-27T05:50:16.196Z,2720.00
2018-06-27T05:50:55.204Z,2104.00
2018-06-27T05:51:55.232Z,2948.00
2018-06-27T05:52:55.259Z,2944.00
2018-06-27T05:53:55.280Z,3108.00
2018-06-27T05:54:55.298Z,3424.00
2018-06-27T05:56:16.343Z,3072.00
2018-06-27T05:56:55.352Z,3464.00
2018-06-27T05:57:55.383Z,3268.00
2018-06-27T05:58:55.402Z,4592.00
2018-06-27T05:59:55.420Z,5688.00
2018-06-27T06:00:55.452Z,6048.00
2018-06-27T06:02:16.493Z,3184.00
2018-06-27T06:02:55.500Z,3088.00
2018-06-27T06:03:55.529Z,3076.00
2018-06-27T06:04:55.551Z,3292.00
2018-06-27T06:05:55.574Z,3072.00
2018-06-27T06:06:55.597Z,3740.00
2018-06-27T06:08:16.649Z,3236.00
2018-06-27T06:08:55.646Z,3712.00
2018-06-27T06:09:55.669Z,5164.00
2018-06-27T06:10:55.693Z,4664.00
2018-06-27T06:11:55.719Z,7344.00
2018-06-27T06:12:55.749Z,5956.00
2018-06-27T06:14:16.789Z,6196.00
2018-06-27T06:14:55.803Z,13640.00
2018-06-27T06:15:55.820Z,17976.00
2018-06-27T06:16:55.839Z,29152.00
2018-06-27T06:17:55.869Z,27424.00
2018-06-27T06:18:55.900Z,18092.00
2018-06-27T06:20:16.934Z,4728.00
2018-06-27T06:20:55.942Z,4804.00
2018-06-27T06:21:55.970Z,2812.00
2018-06-27T06:22:55.988Z,2748.00
2018-06-27T06:23:56.019Z,2656.00
2018-06-27T06:24:56.044Z,1820.00
2018-06-27T06:26:17.084Z,1732.00
2018-06-27T06:26:56.090Z,1784.00
2018-06-27T06:27:56.117Z,2132.00
2018-06-27T06:28:56.138Z,2416.00
2018-06-27T06:29:56.171Z,2284.00
2018-06-27T06:30:56.186Z,2468.00
2018-06-27T06:32:17.308Z,2576.00
2018-06-27T06:32:56.244Z,2964.00
2018-06-27T06:33:56.262Z,3604.00
2018-06-27T06:34:56.288Z,3780.00
2018-06-27T06:35:56.326Z,3728.00
2018-06-27T06:36:56.348Z,4612.00
2018-06-27T06:38:17.392Z,9076.00
2018-06-27T06:38:56.403Z,9676.00
2018-06-27T06:39:56.411Z,9096.00
2018-06-27T06:40:56.437Z,6440.00
2018-06-27T06:41:56.467Z,5316.00
2018-06-27T06:42:56.494Z,4688.00
2018-06-27T06:44:17.542Z,4800.00
2018-06-27T06:44:56.555Z,3828.00
2018-06-27T06:45:56.573Z,4280.00
2018-06-27T06:46:56.591Z,3908.00
2018-06-27T06:47:56.634Z,4432.00
2018-06-27T06:48:56.643Z,4272.00
2018-06-27T06:50:17.686Z,4176.00
2018-06-27T06:50:56.701Z,3812.00
2018-06-27T06:51:56.713Z,3868.00
2018-06-27T06:52:56.738Z,3984.00
2018-06-27T06:53:56.767Z,3876.00
2018-06-27T06:54:56.792Z,3308.00
2018-06-27T06:56:17.832Z,3124.00
2018-06-27T06:56:56.839Z,2988.00
2018-06-27T06:57:56.876Z,3000.00
2018-06-27T06:58:56.894Z,3152.00
2018-06-27T06:59:56.916Z,3332.00
2018-06-27T07:00:56.950Z,3576.00
2018-06-27T07:02:17.984Z,3872.00
2018-06-27T07:02:56.990Z,4020.00
2018-06-27T07:03:57.018Z,4136.00
2018-06-27T07:04:57.136Z,4228.00
2018-06-27T07:05:57.063Z,4396.00
2018-06-27T07:06:57.094Z,4612.00
2018-06-27T07:08:18.131Z,4920.00
2018-06-27T07:08:57.138Z,5172.00
2018-06-27T07:09:57.168Z,5536.00
2018-06-27T07:10:57.244Z,5780.00
2018-06-27T07:11:57.214Z,5836.00
2018-06-27T07:12:57.237Z,6216.00
2018-06-27T07:14:18.283Z,5668.00
2018-06-27T07:14:57.295Z,6188.00
2018-06-27T07:15:57.317Z,5056.00
2018-06-27T07:16:57.340Z,4820.00
2018-06-27T07:17:57.376Z,5424.00
2018-06-27T07:18:57.390Z,5428.00
2018-06-27T07:20:18.437Z,5536.00
2018-06-27T07:20:57.455Z,5812.00
2018-06-27T07:21:57.465Z,5820.00
2018-06-27T07:22:57.491Z,5572.00
2018-06-27T07:23:57.515Z,5384.00
2018-06-27T07:24:57.537Z,5088.00
2018-06-27T07:26:18.588Z,5516.00
2018-06-27T07:26:57.593Z,5132.00
2018-06-27T07:27:57.615Z,5248.00
2018-06-27T07:28:57.641Z,5604.00
2018-06-27T07:29:57.680Z,4828.00
2018-06-27T07:30:57.696Z,4668.00
2018-06-27T07:32:18.739Z,4512.00
2018-06-27T07:32:57.746Z,4460.00
2018-06-27T07:33:57.766Z,4548.00
2018-06-27T07:34:57.790Z,4720.00
2018-06-27T07:35:57.890Z,5040.00
2018-06-27T07:36:57.846Z,5028.00
2018-06-27T07:38:18.886Z,5112.00
2018-06-27T07:38:57.896Z,5004.00
2018-06-27T07:39:57.919Z,5120.00
2018-06-27T07:40:57.947Z,5084.00
2018-06-27T07:41:57.971Z,5296.00
2018-06-27T07:42:57.999Z,4960.00
2018-06-27T07:44:19.040Z,4840.00
2018-06-27T07:44:58.044Z,4820.00
2018-06-27T07:45:58.073Z,4772.00
2018-06-27T07:46:58.093Z,4688.00
2018-06-27T07:47:58.124Z,4560.00
2018-06-27T07:48:58.150Z,4800.00
2018-06-27T07:50:19.192Z,4880.00
2018-06-27T07:50:58.198Z,4768.00
2018-06-27T07:51:58.226Z,4480.00
2018-06-27T07:52:58.260Z,4216.00
2018-06-27T07:53:58.271Z,4176.00
2018-06-27T07:54:58.296Z,3928.00
2018-06-27T07:56:19.340Z,3744.00
2018-06-27T07:56:58.350Z,3576.00
2018-06-27T07:57:58.379Z,3456.00
2018-06-27T07:58:58.404Z,3308.00
2018-06-27T07:59:58.440Z,3260.00
2018-06-27T08:00:58.445Z,3260.00
2018-06-27T08:02:19.495Z,3244.00
2018-06-27T08:02:58.504Z,3236.00
2018-06-27T08:03:58.550Z,3196.00
2018-06-27T08:04:58.561Z,3048.00
2018-06-27T08:05:58.670Z,3048.00
2018-06-27T08:06:59.272Z,2960.00
2018-06-27T08:08:19.651Z,2928.00
2018-06-27T08:08:58.664Z,2940.00
2018-06-27T08:09:58.679Z,2904.00
2018-06-27T08:10:58.711Z,2876.00
2018-06-27T08:11:58.730Z,2868.00
2018-06-27T08:12:58.753Z,2888.00
2018-06-27T08:14:19.800Z,2860.00
2018-06-27T08:14:58.808Z,2808.00
2018-06-27T08:15:58.837Z,2756.00
2018-06-27T08:16:58.853Z,2728.00
2018-06-27T08:17:59.008Z,2708.00
2018-06-27T08:18:58.909Z,2688.00
2018-06-27T08:20:19.954Z,2656.00
2018-06-27T08:20:58.958Z,2624.00
2018-06-27T08:21:58.979Z,2576.00
2018-06-27T08:22:59.010Z,2544.00
2018-06-27T08:23:59.031Z,2528.00
2018-06-27T08:24:59.056Z,2524.00
2018-06-27T08:26:20.231Z,2520.00
2018-06-27T08:26:59.105Z,2504.00
2018-06-27T08:27:59.128Z,2492.00
2018-06-27T08:28:59.155Z,2480.00
2018-06-27T08:29:59.187Z,2476.00
2018-06-27T08:30:59.212Z,2492.00
2018-06-27T08:32:20.247Z,2508.00
2018-06-27T08:32:59.261Z,2520.00
2018-06-27T08:33:59.279Z,2496.00
2018-06-27T08:34:59.310Z,2488.00
2018-06-27T08:35:59.334Z,2500.00
2018-06-27T08:36:59.374Z,2528.00
2018-06-27T08:38:20.400Z,2484.00
2018-06-27T08:38:59.405Z,2480.00
2018-06-27T08:39:59.445Z,2476.00
2018-06-27T08:41:00.357Z,2488.00
2018-06-27T08:41:59.515Z,2512.00
2018-06-27T08:42:59.510Z,2528.00
2018-06-27T08:44:20.627Z,2568.00
2018-06-27T08:44:59.590Z,2612.00
2018-06-27T08:45:59.589Z,2672.00
2018-06-27T08:47:00.355Z,2744.00
2018-06-27T08:47:59.646Z,2828.00
2018-06-27T08:48:59.659Z,2940.00
2018-06-27T08:50:20.701Z,3088.00
2018-06-27T08:50:59.716Z,3148.00
2018-06-27T08:51:59.728Z,3240.00
2018-06-27T08:52:59.760Z,2880.00
2018-06-27T08:53:59.782Z,2852.00
2018-06-27T08:54:59.807Z,2644.00
2018-06-27T08:56:20.843Z,2792.00
2018-06-27T08:56:59.855Z,2784.00
2018-06-27T08:57:59.883Z,2504.00
2018-06-27T08:58:59.966Z,2040.00
2018-06-27T08:59:59.938Z,2440.00
2018-06-27T09:00:59.953Z,2524.00
2018-06-27T09:02:20.997Z,2508.00
2018-06-27T09:03:00.764Z,2468.00
2018-06-27T09:04:00.032Z,2392.00
2018-06-27T09:05:00.201Z,2312.00
2018-06-27T09:06:00.082Z,2264.00
2018-06-27T09:07:00.103Z,2224.00
2018-06-27T09:08:21.252Z,2192.00
2018-06-27T09:09:00.179Z,2148.00
2018-06-27T09:10:00.188Z,2108.00
2018-06-27T09:11:00.208Z,2068.00
2018-06-27T09:12:00.240Z,2044.00
2018-06-27T09:13:00.256Z,2044.00
2018-06-27T09:14:21.301Z,2036.00
2018-06-27T09:15:00.309Z,2032.00
2018-06-27T09:16:00.336Z,2016.00
2018-06-27T09:17:00.358Z,1996.00
2018-06-27T09:18:00.411Z,1980.00
2018-06-27T09:19:00.403Z,1980.00
2018-06-27T09:20:21.450Z,1972.00
2018-06-27T09:21:00.461Z,1956.00
2018-06-27T09:22:00.498Z,1944.00
2018-06-27T09:23:00.504Z,1940.00
2018-06-27T09:24:00.530Z,1928.00
2018-06-27T09:25:00.562Z,1916.00
2018-06-27T09:26:21.592Z,1904.00
2018-06-27T09:27:00.607Z,1896.00
2018-06-27T09:28:00.638Z,1892.00
2018-06-27T09:29:00.646Z,1888.00
2018-06-27T09:30:00.694Z,1888.00
2018-06-27T09:31:00.708Z,1876.00
2018-06-27T09:32:21.761Z,1864.00
2018-06-27T09:33:01.016Z,1860.00
2018-06-27T09:34:00.822Z,1852.00
2018-06-27T09:35:00.837Z,1852.00
2018-06-27T09:36:00.825Z,1848.00
2018-06-27T09:37:00.875Z,1840.00
2018-06-27T09:38:21.903Z,1824.00
2018-06-27T09:39:00.901Z,1828.00
2018-06-27T09:40:00.927Z,1824.00
2018-06-27T09:41:00.945Z,1804.00
2018-06-27T09:42:01.053Z,1776.00
2018-06-27T09:43:01.028Z,1748.00
2018-06-27T09:44:22.043Z,1728.00
2018-06-27T09:45:01.055Z,1732.00
2018-06-27T09:46:01.077Z,1696.00
2018-06-27T09:47:01.129Z,1680.00
2018-06-27T09:48:01.135Z,1696.00
2018-06-27T09:49:01.155Z,1688.00
2018-06-27T09:50:22.204Z,1704.00
2018-06-27T09:51:01.205Z,1664.00
2018-06-27T09:52:01.226Z,1596.00
2018-06-27T09:53:01.323Z,1604.00
2018-06-27T09:54:01.269Z,1700.00
2018-06-27T09:55:01.304Z,1684.00
2018-06-27T09:56:22.356Z,1712.00
2018-06-27T09:57:01.376Z,1716.00
2018-06-27T09:58:01.376Z,1732.00
2018-06-27T09:59:01.403Z,1732.00
2018-06-27T10:00:01.423Z,1732.00
2018-06-27T10:01:01.448Z,1720.00
2018-06-27T10:02:22.495Z,1704.00
2018-06-27T10:03:01.505Z,1712.00
2018-06-27T10:04:01.523Z,1700.00
2018-06-27T10:05:01.546Z,1684.00
2018-06-27T10:06:01.572Z,1684.00
2018-06-27T10:07:01.597Z,1680.00
2018-06-27T10:08:22.649Z,1668.00
2018-06-27T10:09:01.641Z,1656.00
2018-06-27T10:10:01.678Z,1664.00
2018-06-27T10:11:01.702Z,1664.00
2018-06-27T10:12:01.713Z,1656.00
2018-06-27T10:13:01.741Z,1644.00
2018-06-27T10:14:22.789Z,1640.00
2018-06-27T10:15:01.797Z,1640.00
2018-06-27T10:16:01.815Z,1640.00
2018-06-27T10:17:01.874Z,1648.00
2018-06-27T10:18:01.871Z,1656.00
2018-06-27T10:19:01.900Z,1648.00
2018-06-27T10:20:22.942Z,1656.00
2018-06-27T10:21:01.947Z,1676.00
2018-06-27T10:22:01.967Z,1680.00
2018-06-27T10:23:01.999Z,1680.00
2018-06-27T10:24:02.018Z,1688.00
2018-06-27T10:25:02.042Z,1708.00
2018-06-27T10:26:23.088Z,1756.00
2018-06-27T10:27:02.090Z,1800.00
2018-06-27T10:28:02.116Z,1836.00
2018-06-27T10:29:02.146Z,1880.00
2018-06-27T10:30:02.172Z,1940.00
2018-06-27T10:31:02.193Z,2008.00
2018-06-27T10:32:23.255Z,1988.00
2018-06-27T10:33:02.268Z,1996.00
2018-06-27T10:34:02.302Z,1888.00
2018-06-27T10:35:02.890Z,1984.00
2018-06-27T10:36:02.334Z,2008.00
2018-06-27T10:37:02.342Z,2032.00
2018-06-27T10:38:23.387Z,1988.00
2018-06-27T10:39:02.402Z,2012.00
2018-06-27T10:40:02.413Z,2036.00
2018-06-27T10:41:02.470Z,2096.00
2018-06-27T10:42:02.475Z,2116.00
2018-06-27T10:43:02.486Z,2176.00
2018-06-27T10:44:23.536Z,2180.00
2018-06-27T10:45:02.553Z,2176.00
2018-06-27T10:46:04.405Z,2084.00
2018-06-27T10:47:02.611Z,2044.00
2018-06-27T10:48:02.624Z,2004.00
2018-06-27T10:49:02.637Z,1952.00
2018-06-27T10:50:23.681Z,1832.00
2018-06-27T10:51:02.705Z,1916.00
2018-06-27T10:52:03.398Z,1904.00
2018-06-27T10:53:02.761Z,1960.00
2018-06-27T10:54:02.759Z,1996.00
2018-06-27T10:55:02.827Z,1972.00
2018-06-27T10:56:23.829Z,1956.00
2018-06-27T10:57:02.856Z,1988.00
2018-06-27T10:58:02.898Z,2032.00
2018-06-27T10:59:02.907Z,1960.00
2018-06-27T11:00:02.942Z,2008.00
2018-06-27T11:01:02.975Z,2060.00
2018-06-27T11:02:23.990Z,2156.00
2018-06-27T11:03:02.988Z,2276.00
2018-06-27T11:04:03.010Z,1864.00
2018-06-27T11:05:03.045Z,2020.00
2018-06-27T11:06:03.058Z,2196.00
2018-06-27T11:07:03.089Z,2096.00
2018-06-27T11:08:24.120Z,2084.00
2018-06-27T11:09:03.127Z,1936.00
2018-06-27T11:10:03.165Z,2168.00
2018-06-27T11:11:03.299Z,1996.00
2018-06-27T11:12:03.207Z,2008.00
2018-06-27T11:13:03.238Z,2088.00
2018-06-27T11:14:24.283Z,2212.00
2018-06-27T11:15:03.298Z,2176.00
2018-06-27T11:16:03.307Z,2280.00
2018-06-27T11:17:03.426Z,2624.00
2018-06-27T11:18:03.444Z,2636.00
2018-06-27T11:19:03.380Z,2256.00
2018-06-27T11:20:24.509Z,2100.00
2018-06-27T11:21:03.432Z,2144.00
2018-06-27T11:22:03.480Z,1852.00
2018-06-27T11:23:03.536Z,1780.00
2018-06-27T11:24:03.499Z,1828.00
2018-06-27T11:25:03.539Z,1856.00
2018-06-27T11:26:24.629Z,1860.00
2018-06-27T11:27:03.768Z,1900.00
2018-06-27T11:28:03.601Z,1928.00
2018-06-27T11:29:03.626Z,1960.00
2018-06-27T11:30:03.701Z,1988.00
2018-06-27T11:31:03.678Z,1956.00
2018-06-27T11:32:24.720Z,1956.00
2018-06-27T11:33:03.725Z,2008.00
2018-06-27T11:34:03.750Z,2056.00
2018-06-27T11:35:03.776Z,2132.00
2018-06-27T11:36:03.807Z,2152.00
2018-06-27T11:37:03.833Z,2160.00
2018-06-27T11:38:24.888Z,2160.00
2018-06-27T11:39:03.877Z,2056.00
2018-06-27T11:40:03.899Z,1868.00
2018-06-27T11:41:03.977Z,2280.00
2018-06-27T11:42:03.953Z,2388.00
2018-06-27T11:43:04.030Z,2652.00
2018-06-27T11:44:25.076Z,2768.00
2018-06-27T11:45:04.023Z,2828.00
2018-06-27T11:46:04.080Z,2728.00
2018-06-27T11:47:04.079Z,2312.00
2018-06-27T11:48:04.102Z,2216.00
2018-06-27T11:49:04.128Z,2576.00
2018-06-27T11:50:25.173Z,2736.00
2018-06-27T11:51:04.180Z,2540.00
2018-06-27T11:52:04.201Z,2724.00
2018-06-27T11:53:04.227Z,2296.00
2018-06-27T11:54:04.251Z,2620.00
2018-06-27T11:55:04.362Z,2740.00
2018-06-27T11:56:25.317Z,2892.00
2018-06-27T11:57:04.323Z,2744.00
2018-06-27T11:58:04.349Z,2592.00
2018-06-27T11:59:04.387Z,2484.00
2018-06-27T12:00:04.418Z,2332.00
2018-06-27T12:01:04.423Z,2008.00
2018-06-27T12:02:25.468Z,2072.00
2018-06-27T12:03:04.478Z,1692.00
2018-06-27T12:04:04.501Z,1808.00
2018-06-27T12:05:04.522Z,1716.00
2018-06-27T12:06:04.556Z,1424.00
2018-06-27T12:07:04.571Z,1532.00
2018-06-27T12:08:25.686Z,1652.00
2018-06-27T12:09:04.644Z,2136.00
2018-06-27T12:10:04.649Z,2204.00
2018-06-27T12:11:04.670Z,2252.00
2018-06-27T12:12:04.726Z,2312.00
2018-06-27T12:13:04.727Z,2384.00
2018-06-27T12:14:25.777Z,1996.00
2018-06-27T12:15:04.775Z,2004.00
2018-06-27T12:16:04.795Z,2340.00
2018-06-27T12:17:04.836Z,1976.00
2018-06-27T12:18:04.873Z,1920.00
2018-06-27T12:19:04.869Z,2100.00
2018-06-27T12:20:25.918Z,1764.00
2018-06-27T12:21:04.924Z,1676.00
2018-06-27T12:22:04.947Z,1732.00
2018-06-27T12:23:04.976Z,1736.00